CheckWX is a tool to help pilots better visualize weather data.  It is not intended as a substitute for an official pre-flight weather briefing.

06:07:34 UTC

KBED TAF
Laurence G Hanscom Field Airport
Bedford, Massachusetts, USA
KBED 260538Z 2606/2706 00000KT P6SM SCT008 BKN020 TEMPO 2606/2609 BKN008 FM260900 00000KT 3SM BR BKN008 FM261300 35003KT P6SM BKN020 FM261600 01004KT P6SM BKN035 FM270200 08004KT P6SM BKN015 FM270300 08003KT P6SM BKN008

Jun-26@
06:00 UTC

Jun-26 @ 06:00 UTC

Jun-26@
09:00 UTC

Jun-26 @ 09:00 UTC

KBED 260538Z 2606/2706 00000KT P6SM SCT008 BKN020
Cloud Levels
  • Scattered at 800' AGL
  • Broken at 2,000' AGL

Jun-26@
06:00 UTC

Jun-26 @ 06:00 UTC

Jun-26@
09:00 UTC

Jun-26 @ 09:00 UTC

TEMPO 2606/2609 BKN008

Temporary

Temporary Changes expected for less than half the time period

Cloud Levels
  • Broken at 800' AGL

Jun-26@
09:00 UTC

Jun-26 @ 09:00 UTC

Jun-26@
13:00 UTC

Jun-26 @ 13:00 UTC

FM260900 00000KT 3SM BR BKN008

From

From Standard forecast or significant change

Conditions
Mist
Cloud Levels
  • Broken at 800' AGL

Jun-26@
13:00 UTC

Jun-26 @ 13:00 UTC

Jun-26@
16:00 UTC

Jun-26 @ 16:00 UTC

FM261300 35003KT P6SM BKN020

From

From Standard forecast or significant change

Wind
  • 350° at 3 KTS
Cloud Levels
  • Broken at 2,000' AGL

Jun-26@
16:00 UTC

Jun-26 @ 16:00 UTC

Jun-27@
02:00 UTC

Jun-27 @ 02:00 UTC

FM261600 01004KT P6SM BKN035

From

From Standard forecast or significant change

Wind
  • 010° at 4 KTS
Cloud Levels
  • Broken at 3,500' AGL

Jun-27@
02:00 UTC

Jun-27 @ 02:00 UTC

Jun-27@
03:00 UTC

Jun-27 @ 03:00 UTC

FM270200 08004KT P6SM BKN015

From

From Standard forecast or significant change

Wind
  • 080° at 4 KTS
Cloud Levels
  • Broken at 1,500' AGL

Jun-27@
03:00 UTC

Jun-27 @ 03:00 UTC

Jun-27@
06:00 UTC

Jun-27 @ 06:00 UTC

FM270300 08003KT P6SM BKN008

From

From Standard forecast or significant change

Wind
  • 080° at 3 KTS
Cloud Levels
  • Broken at 800' AGL